Time,TemperatureF,DewpointF,PressureIn,WindDirection,WindDirectionDegrees,WindSpeedMPH,WindSpeedGustMPH,Humidity,HourlyPrecipIn,Conditions,Clouds,dailyrainin,SoftwareType,DateUTC
2013-06-04 00:02:00,55.0,48.0,30.06,ESE,119,0.0,0.0,78,0.00,,,0.00,,2013-06-04 05:02:00,
2013-06-04 00:12:00,55.0,48.0,30.06,ESE,119,0.0,0.0,78,0.00,,,0.00,,2013-06-04 05:12:00,
2013-06-04 00:22:00,54.0,48.0,30.06,ESE,119,0.0,0.0,79,0.00,,,0.00,,2013-06-04 05:22:00,
2013-06-04 00:32:00,54.0,48.0,30.06,ESE,119,0.0,0.0,80,0.00,,,0.00,,2013-06-04 05:32:00,
2013-06-04 00:42:00,54.0,48.0,30.06,ESE,119,0.0,0.0,80,0.00,,,0.00,,2013-06-04 05:42:00,
2013-06-04 00:52:00,53.0,47.0,30.06,ESE,119,0.0,0.0,81,0.00,,,0.00,,2013-06-04 05:52:00,
2013-06-04 01:02:00,53.0,47.0,30.07,ESE,119,0.0,0.0,81,0.00,,,0.00,,2013-06-04 06:02:00,
2013-06-04 01:12:00,53.0,47.0,30.07,ESE,119,0.0,0.0,81,0.00,,,0.00,,2013-06-04 06:12:00,
2013-06-04 01:22:00,53.0,48.0,30.07,ESE,119,0.0,0.0,82,0.00,,,0.00,,2013-06-04 06:22:00,
2013-06-04 01:32:00,52.0,47.0,30.07,ESE,119,0.0,0.0,82,0.00,,,0.00,,2013-06-04 06:32:00,
2013-06-04 01:42:00,52.0,47.0,30.07,ESE,119,0.0,0.0,82,0.00,,,0.00,,2013-06-04 06:42:00,
2013-06-04 01:52:00,52.0,47.0,30.07,ESE,119,0.0,0.0,83,0.00,,,0.00,,2013-06-04 06:52:00,
2013-06-04 02:02:00,52.0,47.0,30.07,ESE,119,0.0,0.0,83,0.00,,,0.00,,2013-06-04 07:02:00,
2013-06-04 02:12:00,52.0,47.0,30.07,ESE,119,0.0,0.0,83,0.00,,,0.00,,2013-06-04 07:12:00,
2013-06-04 02:22:00,51.0,46.0,30.07,ESE,119,0.0,0.0,84,0.00,,,0.00,,2013-06-04 07:22:00,
2013-06-04 02:32:00,51.0,46.0,30.08,ESE,119,0.0,0.0,84,0.00,,,0.00,,2013-06-04 07:32:00,
2013-06-04 02:42:00,51.0,46.0,30.08,ESE,119,0.0,0.0,84,0.00,,,0.00,,2013-06-04 07:42:00,
2013-06-04 02:52:00,50.0,46.0,30.07,ESE,119,0.0,0.0,85,0.00,,,0.00,,2013-06-04 07:52:00,
2013-06-04 03:02:00,50.0,46.0,30.08,ESE,119,0.0,0.0,85,0.00,,,0.00,,2013-06-04 08:02:00,
2013-06-04 03:12:00,50.0,46.0,30.08,ESE,119,0.0,0.0,85,0.00,,,0.00,,2013-06-04 08:12:00,
2013-06-04 03:22:00,50.0,46.0,30.09,ESE,119,0.0,0.0,86,0.00,,,0.00,,2013-06-04 08:22:00,
2013-06-04 03:32:00,50.0,46.0,30.11,ESE,119,0.0,0.0,86,0.00,,,0.00,,2013-06-04 08:32:00,
2013-06-04 03:42:00,50.0,46.0,30.11,ESE,119,0.0,0.0,86,0.00,,,0.00,,2013-06-04 08:42:00,
2013-06-04 03:52:00,50.0,46.0,30.10,ESE,119,0.0,0.0,86,0.00,,,0.00,,2013-06-04 08:52:00,
2013-06-04 04:02:00,50.0,46.0,30.09,ESE,119,0.0,0.0,86,0.00,,,0.00,,2013-06-04 09:02:00,
2013-06-04 04:12:00,50.0,46.0,30.09,ESE,119,0.0,0.0,86,0.00,,,0.00,,2013-06-04 09:12:00,
2013-06-04 04:22:00,50.0,46.0,30.08,ESE,119,0.0,0.0,86,0.00,,,0.00,,2013-06-04 09:22:00,
2013-06-04 04:33:00,49.0,45.0,30.08,ESE,119,0.0,0.0,86,0.00,,,0.00,,2013-06-04 09:33:00,
2013-06-04 04:43:00,49.0,45.0,30.08,ESE,119,0.0,0.0,86,0.00,,,0.00,,2013-06-04 09:43:00,
2013-06-04 04:53:00,49.0,45.0,30.08,ESE,119,0.0,0.0,86,0.00,,,0.00,,2013-06-04 09:53:00,
2013-06-04 05:02:00,49.0,45.0,30.07,ESE,119,0.0,0.0,86,0.00,,,0.00,,2013-06-04 10:02:00,
2013-06-04 05:12:00,49.0,45.0,30.07,ESE,119,0.0,0.0,86,0.00,,,0.00,,2013-06-04 10:12:00,
2013-06-04 05:22:00,49.0,45.0,30.07,ESE,119,0.0,0.0,87,0.00,,,0.00,,2013-06-04 10:22:00,
2013-06-04 05:32:00,49.0,45.0,30.07,ESE,119,0.0,0.0,87,0.00,,,0.00,,2013-06-04 10:32:00,
2013-06-04 05:42:00,49.0,45.0,30.07,ESE,119,0.0,0.0,87,0.00,,,0.00,,2013-06-04 10:42:00,
2013-06-04 05:53:00,50.0,46.0,30.07,ESE,119,0.0,0.0,87,0.00,,,0.00,,2013-06-04 10:53:00,
2013-06-04 06:02:00,50.0,46.0,30.06,ESE,119,0.0,0.0,87,0.00,,,0.00,,2013-06-04 11:02:00,
2013-06-04 06:12:00,50.0,46.0,30.06,ESE,119,0.0,0.0,87,0.00,,,0.00,,2013-06-04 11:12:00,
2013-06-04 06:22:00,51.0,46.0,30.05,ESE,119,0.0,0.0,84,0.00,,,0.00,,2013-06-04 11:22:00,
2013-06-04 06:32:00,52.0,46.0,30.05,ESE,119,0.0,0.0,81,0.00,,,0.00,,2013-06-04 11:32:00,
2013-06-04 06:42:00,52.0,46.0,30.05,ESE,119,0.0,0.0,81,0.00,,,0.00,,2013-06-04 11:42:00,
2013-06-04 06:52:00,53.0,46.0,30.05,ESE,120,0.0,0.0,78,0.00,,,0.00,,2013-06-04 11:52:00,
2013-06-04 07:02:00,54.0,47.0,30.06,ESE,120,0.0,0.0,76,0.00,,,0.00,,2013-06-04 12:02:00,
2013-06-04 07:12:00,54.0,47.0,30.06,ESE,120,0.0,0.0,76,0.00,,,0.00,,2013-06-04 12:12:00,
2013-06-04 07:22:00,55.0,48.0,30.07,ESE,120,0.0,0.0,77,0.00,,,0.00,,2013-06-04 12:22:00,
2013-06-04 07:32:00,55.0,48.0,30.08,ESE,120,0.0,0.0,77,0.00,,,0.00,,2013-06-04 12:32:00,
2013-06-04 07:42:00,55.0,48.0,30.08,ESE,120,0.0,0.0,77,0.00,,,0.00,,2013-06-04 12:42:00,
2013-06-04 07:52:00,57.0,49.0,30.09,ESE,115,0.0,0.0,74,0.00,,,0.00,,2013-06-04 12:52:00,
2013-06-04 08:02:00,59.0,50.0,30.08,ESE,115,0.0,0.0,71,0.00,,,0.00,,2013-06-04 13:02:00,
2013-06-04 08:12:00,59.0,50.0,30.08,ESE,115,0.0,0.0,71,0.00,,,0.00,,2013-06-04 13:12:00,
2013-06-04 08:22:00,61.0,50.0,30.08,ESE,119,0.0,0.0,67,0.00,,,0.00,,2013-06-04 13:22:00,
2013-06-04 08:32:00,61.0,49.0,30.09,SE,134,0.0,0.0,65,0.00,,,0.00,,2013-06-04 13:32:00,
2013-06-04 08:42:00,61.0,49.0,30.09,SE,134,0.0,0.0,65,0.00,,,0.00,,2013-06-04 13:42:00,
2013-06-04 08:52:00,63.0,49.0,30.09,SE,132,1.0,5.0,60,0.00,,,0.00,,2013-06-04 13:52:00,
2013-06-04 09:02:00,63.0,49.0,30.11,SE,140,0.0,3.0,61,0.00,,,0.00,,2013-06-04 14:02:00,
2013-06-04 09:12:00,63.0,49.0,30.11,SE,140,0.0,3.0,61,0.00,,,0.00,,2013-06-04 14:12:00,
2013-06-04 09:22:00,64.0,49.0,30.12,SE,127,0.0,4.0,58,0.00,,,0.00,,2013-06-04 14:22:00,
2013-06-04 09:32:00,65.0,51.0,30.14,ESE,110,0.0,3.0,60,0.00,,,0.00,,2013-06-04 14:32:00,
2013-06-04 09:42:00,65.0,51.0,30.14,ESE,110,0.0,3.0,60,0.00,,,0.00,,2013-06-04 14:42:00,
2013-06-04 09:52:00,66.0,47.0,30.14,WNW,299,1.0,3.0,51,0.00,,,0.00,,2013-06-04 14:52:00,
2013-06-04 10:02:00,67.0,50.0,30.14,WNW,298,0.0,1.0,55,0.00,,,0.00,,2013-06-04 15:02:00,
2013-06-04 10:12:00,67.0,50.0,30.14,WNW,298,0.0,1.0,55,0.00,,,0.00,,2013-06-04 15:12:00,
2013-06-04 10:22:00,68.0,50.0,30.14,WNW,298,0.0,2.0,52,0.00,,,0.00,,2013-06-04 15:22:00,
2013-06-04 10:33:00,68.0,50.0,30.14,ENE,71,0.0,4.0,53,0.00,,,0.00,,2013-06-04 15:33:00,
2013-06-04 10:42:00,68.0,50.0,30.14,ENE,71,0.0,4.0,53,0.00,,,0.00,,2013-06-04 15:42:00,
2013-06-04 10:53:00,69.0,50.0,30.11,SSE,149,0.0,4.0,50,0.00,,,0.00,,2013-06-04 15:53:00,
2013-06-04 11:03:00,69.0,50.0,30.12,ESE,118,0.0,5.0,51,0.00,,,0.00,,2013-06-04 16:03:00,
2013-06-04 11:12:00,69.0,50.0,30.12,ESE,118,0.0,5.0,51,0.00,,,0.00,,2013-06-04 16:12:00,
2013-06-04 11:22:00,70.0,46.0,30.12,SSE,148,1.0,3.0,42,0.00,,,0.00,,2013-06-04 16:22:00,
2013-06-04 11:33:00,71.0,49.0,30.13,WNW,298,0.0,5.0,46,0.00,,,0.00,,2013-06-04 16:33:00,
2013-06-04 11:42:00,71.0,49.0,30.13,WNW,298,0.0,5.0,46,0.00,,,0.00,,2013-06-04 16:42:00,
2013-06-04 11:53:00,71.0,49.0,30.14,SSW,198,1.0,4.0,45,0.00,,,0.00,,2013-06-04 16:53:00,
2013-06-04 12:02:00,71.0,52.0,30.13,WNW,290,0.0,3.0,51,0.00,,,0.00,,2013-06-04 17:02:00,
2013-06-04 12:12:00,71.0,52.0,30.13,WNW,290,0.0,3.0,51,0.00,,,0.00,,2013-06-04 17:12:00,
2013-06-04 12:23:00,72.0,49.0,30.11,SE,132,1.0,3.0,45,0.00,,,0.00,,2013-06-04 17:23:00,
2013-06-04 12:32:00,71.0,46.0,30.11,WNW,289,1.0,3.0,41,0.00,,,0.00,,2013-06-04 17:32:00,
2013-06-04 12:42:00,71.0,46.0,30.11,WNW,289,1.0,3.0,41,0.00,,,0.00,,2013-06-04 17:42:00,
2013-06-04 12:52:00,72.0,51.0,30.11,ESE,110,0.0,1.0,48,0.00,,,0.00,,2013-06-04 17:52:00,
2013-06-04 13:02:00,72.0,51.0,30.09,SSE,149,0.0,4.0,48,0.00,,,0.00,,2013-06-04 18:02:00,
2013-06-04 13:12:00,72.0,51.0,30.09,SSE,149,0.0,4.0,48,0.00,,,0.00,,2013-06-04 18:12:00,
2013-06-04 13:22:00,71.0,50.0,30.09,SSE,149,0.0,3.0,47,0.00,,,0.00,,2013-06-04 18:22:00,
2013-06-04 13:32:00,70.0,49.0,30.08,ESE,118,2.0,3.0,47,0.00,,,0.00,,2013-06-04 18:32:00,
2013-06-04 13:42:00,70.0,49.0,30.08,ESE,118,2.0,3.0,47,0.00,,,0.00,,2013-06-04 18:42:00,
2013-06-04 13:53:00,70.0,50.0,30.07,East,94,0.0,3.0,50,0.00,,,0.00,,2013-06-04 18:53:00,
2013-06-04 14:02:00,70.0,50.0,30.06,East,84,1.0,4.0,49,0.00,,,0.00,,2013-06-04 19:02:00,
2013-06-04 14:12:00,70.0,50.0,30.06,East,84,1.0,4.0,49,0.00,,,0.00,,2013-06-04 19:12:00,
2013-06-04 14:22:00,70.0,48.0,30.04,SE,124,3.0,7.0,45,0.00,,,0.00,,2013-06-04 19:22:00,
2013-06-04 14:32:00,70.0,49.0,30.03,ESE,113,2.0,7.0,48,0.00,,,0.00,,2013-06-04 19:32:00,
2013-06-04 14:42:00,70.0,49.0,30.03,ESE,113,2.0,7.0,48,0.00,,,0.00,,2013-06-04 19:42:00,
2013-06-04 14:52:00,70.0,49.0,30.02,East,100,4.0,7.0,48,0.00,,,0.00,,2013-06-04 19:52:00,
2013-06-04 15:02:00,71.0,49.0,30.01,SE,136,4.0,10.0,46,0.00,,,0.00,,2013-06-04 20:02:00,
2013-06-04 15:12:00,71.0,49.0,30.01,SE,136,4.0,10.0,46,0.00,,,0.00,,2013-06-04 20:12:00,
2013-06-04 15:22:00,72.0,49.0,30.02,ESE,103,2.0,9.0,44,0.00,,,0.00,,2013-06-04 20:22:00,
2013-06-04 15:32:00,71.0,49.0,30.04,East,94,2.0,8.0,45,0.00,,,0.00,,2013-06-04 20:32:00,
2013-06-04 15:42:00,71.0,49.0,30.04,East,94,2.0,8.0,45,0.00,,,0.00,,2013-06-04 20:42:00,
2013-06-04 15:53:00,72.0,52.0,30.05,East,95,0.0,3.0,49,0.00,,,0.00,,2013-06-04 20:53:00,
2013-06-04 16:02:00,72.0,51.0,30.05,SSW,200,0.0,5.0,48,0.00,,,0.00,,2013-06-04 21:02:00,
2013-06-04 16:12:00,72.0,51.0,30.05,SSW,200,0.0,5.0,48,0.00,,,0.00,,2013-06-04 21:12:00,
2013-06-04 16:22:00,72.0,51.0,30.04,ESE,109,1.0,4.0,48,0.00,,,0.00,,2013-06-04 21:22:00,
2013-06-04 16:33:00,72.0,54.0,30.05,ESE,123,0.0,3.0,53,0.00,,,0.00,,2013-06-04 21:33:00,
2013-06-04 16:42:00,72.0,54.0,30.05,ESE,123,0.0,3.0,53,0.00,,,0.00,,2013-06-04 21:42:00,
2013-06-04 16:53:00,72.0,49.0,30.04,East,98,2.0,6.0,44,0.00,,,0.00,,2013-06-04 21:53:00,
2013-06-04 17:02:00,72.0,49.0,30.03,SE,128,2.0,5.0,44,0.00,,,0.00,,2013-06-04 22:02:00,
2013-06-04 17:12:00,72.0,49.0,30.03,SE,128,2.0,5.0,44,0.00,,,0.00,,2013-06-04 22:12:00,
2013-06-04 17:22:00,71.0,49.0,30.04,SE,128,1.0,4.0,45,0.00,,,0.00,,2013-06-04 22:22:00,
2013-06-04 17:32:00,71.0,49.0,30.02,ESE,107,2.0,6.0,46,0.00,,,0.00,,2013-06-04 22:32:00,
2013-06-04 17:42:00,71.0,49.0,30.02,ESE,107,2.0,6.0,46,0.00,,,0.00,,2013-06-04 22:42:00,
2013-06-04 17:52:00,71.0,49.0,30.02,ESE,105,1.0,5.0,46,0.00,,,0.00,,2013-06-04 22:52:00,
2013-06-04 18:02:00,71.0,50.0,30.02,ESE,115,1.0,4.0,47,0.00,,,0.00,,2013-06-04 23:02:00,
2013-06-04 18:12:00,71.0,50.0,30.02,ESE,115,1.0,4.0,47,0.00,,,0.00,,2013-06-04 23:12:00,
2013-06-04 18:22:00,70.0,48.0,30.02,ESE,117,0.0,4.0,46,0.00,,,0.00,,2013-06-04 23:22:00,
2013-06-04 18:32:00,70.0,49.0,30.02,ESE,118,0.0,4.0,48,0.00,,,0.00,,2013-06-04 23:32:00,
2013-06-04 18:42:00,70.0,49.0,30.02,ESE,118,0.0,4.0,48,0.00,,,0.00,,2013-06-04 23:42:00,
2013-06-04 18:52:00,70.0,50.0,30.01,ESE,118,0.0,1.0,49,0.00,,,0.00,,2013-06-04 23:52:00,
2013-06-04 19:02:00,70.0,50.0,30.02,ESE,118,0.0,4.0,49,0.00,,,0.00,,2013-06-05 00:02:00,
2013-06-04 19:12:00,70.0,50.0,30.02,ESE,118,0.0,4.0,49,0.00,,,0.00,,2013-06-05 00:12:00,
2013-06-04 19:22:00,69.0,49.0,30.01,ESE,118,0.0,2.0,49,0.00,,,0.00,,2013-06-05 00:22:00,
2013-06-04 19:32:00,69.0,50.0,30.00,ESE,122,1.0,5.0,51,0.00,,,0.00,,2013-06-05 00:32:00,
2013-06-04 19:42:00,69.0,50.0,30.00,ESE,122,1.0,5.0,51,0.00,,,0.00,,2013-06-05 00:42:00,
2013-06-04 19:52:00,69.0,51.0,30.01,ESE,123,0.0,3.0,53,0.00,,,0.00,,2013-06-05 00:52:00,
2013-06-04 20:02:00,68.0,51.0,30.01,SE,135,0.0,2.0,54,0.00,,,0.00,,2013-06-05 01:02:00,
2013-06-04 20:12:00,68.0,51.0,30.01,SE,135,0.0,2.0,54,0.00,,,0.00,,2013-06-05 01:12:00,
2013-06-04 20:22:00,68.0,51.0,30.01,SE,135,0.0,1.0,55,0.00,,,0.00,,2013-06-05 01:22:00,
2013-06-04 20:32:00,68.0,53.0,30.02,SE,135,0.0,1.0,58,0.00,,,0.00,,2013-06-05 01:32:00,
2013-06-04 20:42:00,68.0,53.0,30.02,SE,135,0.0,1.0,58,0.00,,,0.00,,2013-06-05 01:42:00,
2013-06-04 20:52:00,67.0,53.0,30.02,SE,135,0.0,1.0,60,0.00,,,0.00,,2013-06-05 01:52:00,
2013-06-04 21:02:00,67.0,54.0,30.02,SE,135,0.0,0.0,63,0.00,,,0.00,,2013-06-05 02:02:00,
2013-06-04 21:12:00,67.0,54.0,30.02,SE,135,0.0,0.0,63,0.00,,,0.00,,2013-06-05 02:12:00,
2013-06-04 21:22:00,66.0,53.0,30.03,SE,135,0.0,0.0,64,0.00,,,0.00,,2013-06-05 02:22:00,
2013-06-04 21:32:00,65.0,54.0,30.03,SE,135,0.0,0.0,68,0.00,,,0.00,,2013-06-05 02:32:00,
2013-06-04 21:42:00,64.0,53.0,30.04,SE,135,0.0,0.0,68,0.00,,,0.00,,2013-06-05 02:42:00,
2013-06-04 21:52:00,64.0,53.0,30.04,SE,135,0.0,0.0,68,0.00,,,0.00,,2013-06-05 02:52:00,
2013-06-04 22:02:00,64.0,55.0,30.04,SE,135,0.0,0.0,73,0.00,,,0.00,,2013-06-05 03:02:00,
2013-06-04 22:12:00,64.0,55.0,30.04,SE,135,0.0,0.0,73,0.00,,,0.00,,2013-06-05 03:12:00,
2013-06-04 22:22:00,63.0,55.0,30.04,SE,135,0.0,0.0,74,0.00,,,0.00,,2013-06-05 03:22:00,
2013-06-04 22:33:00,62.0,54.0,30.05,SE,135,0.0,0.0,75,0.00,,,0.00,,2013-06-05 03:33:00,
2013-06-04 22:43:00,62.0,54.0,30.05,SE,135,0.0,0.0,75,0.00,,,0.00,,2013-06-05 03:43:00,
2013-06-04 22:53:00,62.0,55.0,30.05,SE,135,0.0,0.0,77,0.00,,,0.00,,2013-06-05 03:53:00,
2013-06-04 23:02:00,62.0,55.0,30.06,SE,135,0.0,0.0,78,0.00,,,0.00,,2013-06-05 04:02:00,
2013-06-04 23:13:00,62.0,55.0,30.06,SE,135,0.0,0.0,78,0.00,,,0.00,,2013-06-05 04:13:00,
2013-06-04 23:22:00,61.0,54.0,30.04,SE,135,0.0,0.0,78,0.00,,,0.00,,2013-06-05 04:22:00,
2013-06-04 23:33:00,61.0,55.0,30.05,SE,135,0.0,0.0,80,0.00,,,0.00,,2013-06-05 04:33:00,
2013-06-04 23:42:00,61.0,55.0,30.05,SE,135,0.0,0.0,80,0.00,,,0.00,,2013-06-05 04:42:00,
2013-06-04 23:53:00,61.0,55.0,30.06,SE,135,0.0,0.0,80,0.00,,,0.00,,2013-06-05 04:53:00,